Time;durP1;ratioP1;P1;durP2;ratioP2;P2;SDS_P1;SDS_P2;PMS_P1;PMS_P2;Temp;Humidity;BMP_temperature;BMP_pressure;BME280_temperature;BME280_humidity;BME280_pressure;Samples;Min_cycle;Max_cycle;Signal;HPM_P1;HPM_P2
2022/03/19 00:00:31;;;;;;;14.35;5.70;;;7.30;99.90;;;;;;5071747;28;20024;-62
2022/03/19 00:02:57;;;;;;;16.40;5.30;;;7.20;99.90;;;;;;5074542;28;20174;-62
2022/03/19 00:05:22;;;;;;;16.13;5.32;;;7.20;99.90;;;;;;5070703;28;20064;-63
2022/03/19 00:07:49;;;;;;;13.20;5.50;;;7.10;99.90;;;;;;5070970;28;20033;-63
2022/03/19 00:10:16;;;;;;;15.63;6.13;;;7.00;99.90;;;;;;5071653;28;20024;-63
2022/03/19 00:12:42;;;;;;;17.70;6.20;;;6.90;99.90;;;;;;5073853;28;20020;-62
2022/03/19 00:15:09;;;;;;;10.98;5.20;;;6.80;99.90;;;;;;5071080;28;20024;-62
2022/03/19 00:17:35;;;;;;;12.25;6.35;;;6.90;99.90;;;;;;5070770;28;20448;-63
2022/03/19 00:20:01;;;;;;;11.20;5.47;;;6.90;99.90;;;;;;5073332;28;20024;-62
2022/03/19 00:22:26;;;;;;;16.15;6.05;;;6.90;99.90;;;;;;5070913;28;20070;-62
2022/03/19 00:24:52;;;;;;;11.13;5.40;;;6.80;99.90;;;;;;5069468;28;20482;-62
2022/03/19 00:27:18;;;;;;;19.95;6.28;;;6.70;99.90;;;;;;5070553;28;20028;-61
2022/03/19 00:29:43;;;;;;;12.90;6.15;;;6.70;99.90;;;;;;5069683;28;20036;-61
2022/03/19 00:32:09;;;;;;;9.48;5.00;;;6.50;99.90;;;;;;5052735;28;20433;-60
2022/03/19 00:34:34;;;;;;;15.65;5.45;;;6.50;99.90;;;;;;5069881;28;20393;-62
2022/03/19 00:37:00;;;;;;;21.08;5.75;;;6.50;99.90;;;;;;5070484;28;20032;-61
2022/03/19 00:39:26;;;;;;;18.95;6.03;;;6.40;99.90;;;;;;5070294;28;20103;-60
2022/03/19 00:41:55;;;;;;;17.58;5.97;;;6.40;99.90;;;;;;5074915;28;20027;-62
2022/03/19 00:44:24;;;;;;;22.42;6.25;;;6.30;99.90;;;;;;5069362;28;20055;-60
2022/03/19 00:46:50;;;;;;;12.82;6.38;;;5.90;99.90;;;;;;5069758;28;20024;-64
2022/03/19 00:49:16;;;;;;;11.07;6.22;;;5.70;99.90;;;;;;5073096;28;20115;-61
2022/03/19 00:51:42;;;;;;;12.18;6.28;;;5.50;99.90;;;;;;5070057;28;20104;-64
2022/03/19 00:54:09;;;;;;;13.75;6.07;;;5.40;99.90;;;;;;5070046;28;20118;-61
2022/03/19 00:56:35;;;;;;;16.33;6.20;;;5.30;99.90;;;;;;5069220;28;20031;-59
2022/03/19 00:59:01;;;;;;;20.83;6.15;;;5.20;99.90;;;;;;5066038;28;20024;-63
2022/03/19 01:01:27;;;;;;;21.88;6.93;;;5.20;99.90;;;;;;5067685;28;20020;-62
2022/03/19 01:03:53;;;;;;;23.77;7.18;;;5.10;99.90;;;;;;5067728;28;20063;-62
2022/03/19 01:06:18;;;;;;;15.73;6.70;;;5.10;99.90;;;;;;5070131;28;20032;-61
2022/03/19 01:08:44;;;;;;;21.08;7.75;;;5.10;99.90;;;;;;5070753;28;20032;-59
2022/03/19 01:11:09;;;;;;;18.38;7.93;;;5.20;99.90;;;;;;5069606;28;20227;-62
2022/03/19 01:13:35;;;;;;;18.58;7.75;;;5.30;99.90;;;;;;5069376;28;20115;-63
2022/03/19 01:16:02;;;;;;;13.88;7.47;;;5.30;99.90;;;;;;5071554;28;20033;-61
2022/03/19 01:18:28;;;;;;;18.90;7.65;;;5.30;99.90;;;;;;5073473;28;20049;-60
2022/03/19 01:20:54;;;;;;;17.48;7.32;;;5.20;99.90;;;;;;5068974;28;20031;-62
2022/03/19 01:23:19;;;;;;;13.25;6.28;;;5.10;99.90;;;;;;5071333;28;20028;-62
2022/03/19 01:25:45;;;;;;;22.17;7.40;;;5.00;99.90;;;;;;5069303;28;20048;-62
2022/03/19 01:28:10;;;;;;;17.33;8.02;;;5.10;99.90;;;;;;5069072;28;20033;-64
2022/03/19 01:30:36;;;;;;;15.63;7.35;;;5.10;99.90;;;;;;5069420;28;20032;-62
2022/03/19 01:33:01;;;;;;;17.35;6.82;;;5.20;99.90;;;;;;5069423;28;20044;-62
2022/03/19 01:35:27;;;;;;;16.27;7.47;;;5.30;99.90;;;;;;5068656;28;20029;-61
2022/03/19 01:37:53;;;;;;;15.68;8.23;;;5.30;99.90;;;;;;5069656;28;20032;-59
2022/03/19 01:40:19;;;;;;;16.38;7.53;;;5.30;99.90;;;;;;5068898;28;20024;-60
2022/03/19 01:42:50;;;;;;;15.98;6.88;;;5.30;99.90;;;;;;5068841;28;20266;-61
2022/03/19 01:45:22;;;;;;;18.27;6.78;;;5.30;99.90;;;;;;5068889;28;20070;-62
2022/03/19 01:47:48;;;;;;;17.48;7.75;;;5.40;99.90;;;;;;5068904;28;20107;-61
2022/03/19 01:50:15;;;;;;;16.98;7.57;;;5.40;99.90;;;;;;5068634;28;20504;-62
2022/03/19 01:52:41;;;;;;;19.25;6.97;;;5.30;99.90;;;;;;5070388;28;20107;-64
2022/03/19 01:57:51;;;;;;;17.35;7.57;;;4.60;99.90;;;;;;5086220;28;20044;-61
2022/03/19 02:00:21;;;;;;;18.08;7.20;;;4.30;99.90;;;;;;5088397;28;20035;-60
2022/03/19 02:02:48;;;;;;;14.80;8.02;;;4.10;99.90;;;;;;5089493;28;20028;-61
2022/03/19 02:05:19;;;;;;;21.25;7.93;;;3.90;99.90;;;;;;5090149;28;20154;-60
2022/03/19 02:07:46;;;;;;;21.20;8.13;;;3.80;99.90;;;;;;5081336;28;20025;-60
2022/03/19 02:10:16;;;;;;;21.13;7.88;;;3.70;99.90;;;;;;5088799;28;20089;-59
2022/03/19 02:12:44;;;;;;;20.13;8.48;;;3.90;99.90;;;;;;5088252;28;20032;-60
2022/03/19 02:15:11;;;;;;;19.05;8.98;;;4.00;99.90;;;;;;5088812;28;20427;-59
2022/03/19 02:17:37;;;;;;;23.27;8.65;;;4.10;99.90;;;;;;5092846;28;20049;-60
2022/03/19 02:20:04;;;;;;;25.65;9.88;;;4.20;99.90;;;;;;5092435;28;20108;-60
2022/03/19 02:22:30;;;;;;;23.67;8.70;;;4.20;99.90;;;;;;5092471;28;20024;-60
2022/03/19 02:27:42;;;;;;;17.75;8.73;;;4.40;99.90;;;;;;5092330;28;20031;-60
2022/03/19 02:30:10;;;;;;;17.38;8.68;;;4.40;99.90;;;;;;5089068;28;20131;-60
2022/03/19 02:32:36;;;;;;;17.48;7.13;;;4.40;99.90;;;;;;5092180;28;20024;-61
2022/03/19 02:35:02;;;;;;;14.80;6.80;;;4.30;99.90;;;;;;5091643;28;20032;-58
2022/03/19 02:37:38;;;;;;;17.90;7.70;;;4.10;99.90;;;;;;5092120;28;20112;-60
2022/03/19 02:40:04;;;;;;;15.60;6.63;;;4.10;99.90;;;;;;5092983;28;20066;-60
2022/03/19 02:42:29;;;;;;;18.50;8.10;;;4.10;99.90;;;;;;5092251;28;20071;-61
2022/03/19 02:44:55;;;;;;;20.13;8.10;;;4.20;99.90;;;;;;5092129;28;20485;-60
2022/03/19 02:47:20;;;;;;;17.95;8.38;;;4.20;99.90;;;;;;5091510;28;20085;-60
2022/03/19 02:49:46;;;;;;;16.10;7.18;;;4.30;99.90;;;;;;5092422;28;20101;-61
2022/03/19 02:52:11;;;;;;;27.15;7.70;;;4.40;99.90;;;;;;5092499;28;20375;-58
2022/03/19 02:54:37;;;;;;;17.48;7.47;;;4.40;99.90;;;;;;5092484;28;20028;-59
2022/03/19 02:57:03;;;;;;;19.15;7.18;;;4.50;99.90;;;;;;5092497;28;20031;-61
2022/03/19 02:59:31;;;;;;;24.13;7.65;;;4.50;99.90;;;;;;5090480;28;20090;-61
2022/03/19 03:01:59;;;;;;;17.23;9.05;;;4.50;99.90;;;;;;5091702;28;20032;-60
2022/03/19 03:04:25;;;;;;;18.52;8.00;;;4.50;99.90;;;;;;5091712;28;20020;-60
2022/03/19 03:06:54;;;;;;;15.52;6.80;;;4.40;99.90;;;;;;5086553;28;20039;-61
2022/03/19 03:09:23;;;;;;;17.17;7.18;;;4.00;99.90;;;;;;5091901;28;20032;-61
2022/03/19 03:11:50;;;;;;;16.38;7.13;;;3.90;99.90;;;;;;5092909;28;20067;-61
2022/03/19 03:14:19;;;;;;;21.75;8.77;;;3.90;99.90;;;;;;5088280;28;20089;-62
2022/03/19 03:16:45;;;;;;;18.33;7.18;;;4.00;99.90;;;;;;5086401;28;20024;-61
2022/03/19 03:19:12;;;;;;;16.50;6.85;;;3.80;99.90;;;;;;5091513;28;20020;-61
2022/03/19 03:21:41;;;;;;;16.00;7.07;;;3.80;99.90;;;;;;5091106;28;20028;-62
2022/03/19 03:24:08;;;;;;;20.20;7.82;;;3.80;99.90;;;;;;5092128;28;20032;-60
2022/03/19 03:26:34;;;;;;;16.80;7.03;;;3.90;99.90;;;;;;5091465;28;20040;-60
2022/03/19 03:29:00;;;;;;;14.98;7.88;;;3.90;99.90;;;;;;5088171;28;20040;-61
2022/03/19 03:31:26;;;;;;;12.57;7.00;;;3.90;99.90;;;;;;5089992;28;20078;-61
2022/03/19 03:33:53;;;;;;;15.13;7.20;;;3.90;99.90;;;;;;5091033;28;20035;-62
2022/03/19 03:36:19;;;;;;;23.95;8.55;;;3.90;99.90;;;;;;5091882;28;20028;-61
2022/03/19 03:38:44;;;;;;;12.52;7.13;;;3.90;99.90;;;;;;5091933;28;20074;-61
2022/03/19 03:41:10;;;;;;;17.15;7.00;;;4.10;99.90;;;;;;5091378;28;20032;-61
2022/03/19 03:43:36;;;;;;;12.13;6.40;;;4.20;99.90;;;;;;5091916;28;20038;-62
2022/03/19 03:46:02;;;;;;;14.05;6.53;;;4.20;99.90;;;;;;5089229;28;20047;-60
2022/03/19 03:48:27;;;;;;;17.25;7.05;;;4.10;99.90;;;;;;5091048;28;20028;-59
2022/03/19 03:50:55;;;;;;;19.40;6.85;;;3.70;99.90;;;;;;5091634;28;20058;-60
2022/03/19 03:53:24;;;;;;;15.38;7.20;;;3.40;99.90;;;;;;5091443;28;20036;-61
2022/03/19 03:55:50;;;;;;;15.65;6.72;;;3.20;99.90;;;;;;5089724;28;20111;-61
2022/03/19 03:58:16;;;;;;;17.42;6.53;;;3.20;99.90;;;;;;5091513;28;20446;-61
2022/03/19 04:00:41;;;;;;;22.02;7.75;;;3.20;99.90;;;;;;5091437;28;20424;-61
2022/03/19 04:03:07;;;;;;;15.95;6.28;;;3.30;99.90;;;;;;5090986;28;20032;-61
2022/03/19 04:05:36;;;;;;;19.15;6.70;;;3.30;99.90;;;;;;5090906;28;20024;-60
2022/03/19 04:08:03;;;;;;;19.17;7.38;;;3.30;99.90;;;;;;5090435;28;20092;-61
2022/03/19 04:10:30;;;;;;;18.42;7.38;;;3.30;99.90;;;;;;5090726;28;20019;-61
2022/03/19 04:12:55;;;;;;;16.77;6.80;;;3.30;99.90;;;;;;5090282;28;20024;-61
2022/03/19 04:15:21;;;;;;;15.05;7.18;;;3.40;99.90;;;;;;5086147;28;20027;-60
2022/03/19 04:17:46;;;;;;;16.10;7.05;;;3.40;99.90;;;;;;5090995;28;20031;-60
2022/03/19 04:20:13;;;;;;;13.38;6.55;;;3.30;99.90;;;;;;5091111;28;20032;-62
2022/03/19 04:22:45;;;;;;;17.30;7.63;;;3.10;99.90;;;;;;5091391;28;20059;-61
2022/03/19 04:25:13;;;;;;;17.73;6.18;;;3.00;99.90;;;;;;5090599;28;20561;-61
2022/03/19 04:27:49;;;;;;;16.35;6.63;;;3.10;99.90;;;;;;5090520;28;20028;-61
2022/03/19 04:30:17;;;;;;;11.57;5.82;;;3.10;99.90;;;;;;5085457;28;20029;-60
2022/03/19 04:32:47;;;;;;;17.33;7.15;;;3.10;99.90;;;;;;5089889;28;20036;-60
2022/03/19 04:38:01;;;;;;;12.70;6.25;;;3.00;99.90;;;;;;5090574;28;20111;-60
2022/03/19 04:40:27;;;;;;;17.60;7.35;;;2.80;99.90;;;;;;5092424;28;20135;-60
2022/03/19 04:42:53;;;;;;;17.58;7.28;;;2.70;99.90;;;;;;5091078;28;20485;-60
2022/03/19 04:45:19;;;;;;;17.88;8.70;;;2.70;99.90;;;;;;5090331;28;20119;-60
2022/03/19 04:47:45;;;;;;;14.93;6.18;;;2.60;99.90;;;;;;5092118;28;20103;-60
2022/03/19 04:50:10;;;;;;;16.17;6.85;;;2.50;99.90;;;;;;5092199;28;20051;-60
2022/03/19 04:52:37;;;;;;;20.85;7.03;;;2.50;99.90;;;;;;5089088;28;20446;-60
2022/03/19 04:55:03;;;;;;;18.75;8.80;;;2.50;99.90;;;;;;5087355;28;20060;-62
2022/03/19 04:57:28;;;;;;;14.00;7.18;;;2.60;99.90;;;;;;5090434;28;20067;-61
2022/03/19 04:59:55;;;;;;;15.20;7.30;;;2.70;99.90;;;;;;5087689;28;20032;-60
2022/03/19 05:02:24;;;;;;;13.82;6.45;;;2.80;99.90;;;;;;5092223;28;20546;-61
2022/03/19 05:04:54;;;;;;;13.93;7.38;;;2.80;99.90;;;;;;5091710;28;20024;-59
2022/03/19 05:07:20;;;;;;;22.60;7.15;;;2.90;99.90;;;;;;5092045;28;20032;-61
2022/03/19 05:12:36;;;;;;;13.50;6.40;;;2.90;99.90;;;;;;5087773;28;20147;-60
2022/03/19 05:15:02;;;;;;;16.77;6.93;;;2.80;99.90;;;;;;5090056;28;20066;-60
2022/03/19 05:17:28;;;;;;;15.77;6.57;;;2.70;99.90;;;;;;5090839;28;20020;-60
2022/03/19 05:19:53;;;;;;;16.95;6.88;;;2.80;99.90;;;;;;5091906;28;20026;-59
2022/03/19 05:22:19;;;;;;;13.43;6.80;;;2.60;99.90;;;;;;5090540;28;20020;-60
2022/03/19 05:24:45;;;;;;;21.55;6.95;;;2.50;99.90;;;;;;5090947;28;20023;-59
2022/03/19 05:27:11;;;;;;;14.90;6.95;;;2.30;99.90;;;;;;5091687;28;20081;-58
2022/03/19 05:29:37;;;;;;;10.95;5.97;;;2.40;99.90;;;;;;5088723;28;20024;-60
2022/03/19 05:32:06;;;;;;;12.95;6.85;;;2.50;99.90;;;;;;5091649;28;20028;-60
2022/03/19 05:34:32;;;;;;;14.77;6.78;;;2.40;99.90;;;;;;5091013;28;20556;-60
2022/03/19 05:36:59;;;;;;;15.05;7.03;;;2.50;99.90;;;;;;5091360;28;20115;-60
2022/03/19 05:39:26;;;;;;;14.73;7.20;;;2.20;99.90;;;;;;5088933;28;20012;-59
2022/03/19 05:41:52;;;;;;;18.58;7.43;;;2.30;99.90;;;;;;5091445;28;20031;-59
2022/03/19 05:44:18;;;;;;;17.63;6.45;;;2.30;99.90;;;;;;5090081;28;20385;-60
2022/03/19 05:46:43;;;;;;;18.77;6.70;;;2.40;99.90;;;;;;5085086;28;20031;-59
2022/03/19 05:49:09;;;;;;;15.63;6.22;;;2.30;99.90;;;;;;5090150;28;20032;-58
2022/03/19 05:51:34;;;;;;;21.15;7.47;;;2.30;99.90;;;;;;5091164;28;20505;-59
2022/03/19 05:54:00;;;;;;;16.25;6.90;;;2.40;99.90;;;;;;5089505;28;20031;-61
2022/03/19 05:56:26;;;;;;;13.55;6.85;;;2.50;99.90;;;;;;5091099;28;20036;-60
2022/03/19 05:58:52;;;;;;;16.90;6.32;;;2.50;99.90;;;;;;5090422;28;20024;-61
2022/03/19 06:01:17;;;;;;;19.58;7.68;;;2.50;99.90;;;;;;5091208;28;20024;-58
2022/03/19 06:03:43;;;;;;;15.43;6.22;;;2.60;99.90;;;;;;5090763;28;20062;-59
2022/03/19 06:06:09;;;;;;;18.45;6.93;;;2.60;99.90;;;;;;5091053;28;20043;-60
2022/03/19 06:08:35;;;;;;;15.98;6.85;;;2.50;99.90;;;;;;5090702;28;20486;-61
2022/03/19 06:11:00;;;;;;;15.48;6.82;;;2.40;99.90;;;;;;5089991;28;20040;-61
2022/03/19 06:13:26;;;;;;;22.42;7.25;;;2.20;99.90;;;;;;5085013;28;20032;-61
2022/03/19 06:15:52;;;;;;;22.25;7.47;;;2.20;99.90;;;;;;5090899;28;20119;-61
2022/03/19 06:18:17;;;;;;;22.85;7.22;;;2.30;99.90;;;;;;5084286;28;20550;-60
2022/03/19 06:20:43;;;;;;;21.13;8.25;;;2.30;99.90;;;;;;5091389;28;20517;-59
2022/03/19 06:23:09;;;;;;;15.98;6.90;;;2.20;99.90;;;;;;5088544;28;20025;-60
2022/03/19 06:25:35;;;;;;;14.23;6.85;;;2.30;99.90;;;;;;5089372;28;20028;-59
2022/03/19 06:28:01;;;;;;;16.30;7.03;;;2.40;99.90;;;;;;5089977;28;20413;-60
2022/03/19 06:30:27;;;;;;;19.05;7.53;;;2.40;99.90;;;;;;5090581;28;20103;-61
2022/03/19 06:32:53;;;;;;;17.88;7.85;;;2.50;99.90;;;;;;5090853;28;20104;-61
2022/03/19 06:37:19;;;;;;;14.57;7.07;;;2.60;99.90;;;;;;5090373;28;20085;-61
2022/03/19 06:38:04;;;;;;;15.02;7.10;;;2.60;99.90;;;;;;5090848;28;20107;-60
2022/03/19 06:40:30;;;;;;;21.52;7.40;;;2.70;99.90;;;;;;5090214;28;20435;-61
2022/03/19 06:42:55;;;;;;;22.15;7.20;;;2.80;99.90;;;;;;5090162;28;20533;-61
2022/03/19 06:45:21;;;;;;;17.70;6.63;;;2.90;99.90;;;;;;5090202;28;20112;-61
2022/03/19 06:47:46;;;;;;;16.85;6.72;;;2.90;99.90;;;;;;5090198;28;20389;-61
2022/03/19 06:50:12;;;;;;;15.75;6.93;;;3.00;99.90;;;;;;5090542;28;20803;-62
2022/03/19 06:52:37;;;;;;;19.52;6.90;;;3.10;99.90;;;;;;5089951;28;20371;-61
2022/03/19 06:55:04;;;;;;;16.67;7.18;;;3.20;99.90;;;;;;5088498;28;20036;-62
2022/03/19 06:57:29;;;;;;;18.02;7.60;;;3.40;99.90;;;;;;5088679;28;20035;-61
2022/03/19 06:59:55;;;;;;;12.63;6.60;;;3.50;99.90;;;;;;5089752;28;20032;-61
2022/03/19 07:02:20;;;;;;;17.10;7.15;;;3.70;99.90;;;;;;5092161;28;20486;-62
2022/03/19 07:04:46;;;;;;;16.45;7.18;;;3.80;99.90;;;;;;5093531;28;20028;-61
2022/03/19 07:07:11;;;;;;;14.00;6.40;;;4.00;99.90;;;;;;5093211;28;20032;-61
2022/03/19 07:09:37;;;;;;;15.85;7.60;;;4.10;99.90;;;;;;5093454;28;20028;-61
2022/03/19 07:12:04;;;;;;;14.02;6.65;;;4.40;99.90;;;;;;5093537;28;20381;-62
2022/03/19 07:14:29;;;;;;;15.27;6.35;;;4.70;99.90;;;;;;5092960;28;20088;-63
2022/03/19 07:16:56;;;;;;;12.25;6.30;;;4.80;99.90;;;;;;5090255;28;20020;-61
2022/03/19 07:19:21;;;;;;;19.77;6.82;;;5.10;99.90;;;;;;5089756;28;20020;-60
2022/03/19 07:21:47;;;;;;;13.93;5.22;;;5.40;99.90;;;;;;5093087;28;20035;-60
2022/03/19 07:24:12;;;;;;;18.70;5.60;;;5.50;99.90;;;;;;5093475;28;20028;-62
2022/03/19 07:26:38;;;;;;;13.52;6.47;;;5.70;99.90;;;;;;5093862;28;20040;-61
2022/03/19 07:29:03;;;;;;;11.80;5.78;;;5.80;99.90;;;;;;5091366;28;20105;-61
2022/03/19 07:31:29;;;;;;;13.68;5.45;;;6.10;99.90;;;;;;5092257;28;20489;-61
2022/03/19 07:33:55;;;;;;;9.30;5.40;;;6.20;99.90;;;;;;5093253;28;20031;-62
2022/03/19 07:36:20;;;;;;;15.77;5.38;;;6.40;99.90;;;;;;5093973;28;20477;-61
2022/03/19 07:38:46;;;;;;;14.05;5.15;;;6.50;99.90;;;;;;5093644;28;20021;-60
2022/03/19 07:43:56;;;;;;;10.40;5.20;;;6.60;99.90;;;;;;5092808;28;20401;-61
2022/03/19 07:46:22;;;;;;;10.52;5.18;;;6.80;99.90;;;;;;5093047;28;20032;-61
2022/03/19 07:48:48;;;;;;;14.40;5.25;;;7.00;99.90;;;;;;5092785;28;20478;-62
2022/03/19 07:51:14;;;;;;;13.45;5.15;;;7.10;99.90;;;;;;5092740;28;20151;-61
2022/03/19 07:53:39;;;;;;;16.23;5.80;;;7.10;99.90;;;;;;5091568;28;20393;-62
2022/03/19 07:56:06;;;;;;;13.55;4.85;;;7.20;99.90;;;;;;5108520;22;20031;-58
2022/03/19 07:58:31;;;;;;;13.05;5.82;;;7.20;99.90;;;;;;5068685;28;20385;-60
2022/03/19 08:00:57;;;;;;;12.60;5.32;;;7.20;99.90;;;;;;5046943;28;20429;-62
2022/03/19 08:03:22;;;;;;;12.77;6.07;;;7.40;99.90;;;;;;5064477;28;20024;-63
2022/03/19 08:05:48;;;;;;;11.80;4.88;;;7.50;99.90;;;;;;5061804;28;20550;-62
2022/03/19 08:08:14;;;;;;;15.27;5.88;;;7.60;99.90;;;;;;5043808;28;20021;-63
2022/03/19 08:10:40;;;;;;;20.35;5.70;;;7.60;99.90;;;;;;5046155;28;20025;-63
2022/03/19 08:13:07;;;;;;;13.05;5.35;;;7.70;99.90;;;;;;5044008;28;20099;-62
2022/03/19 08:15:33;;;;;;;11.23;4.75;;;7.80;99.90;;;;;;5045926;28;20040;-60
2022/03/19 08:17:59;;;;;;;14.77;5.32;;;7.90;99.90;;;;;;5046178;28;20055;-60
2022/03/19 08:20:26;;;;;;;13.23;5.82;;;8.00;99.90;;;;;;5047408;28;20033;-63
2022/03/19 08:22:52;;;;;;;15.32;5.53;;;8.00;99.90;;;;;;5042249;28;20100;-62
2022/03/19 08:25:17;;;;;;;17.13;6.13;;;8.10;99.90;;;;;;5044446;28;20103;-62
2022/03/19 08:27:43;;;;;;;14.18;5.68;;;8.20;99.90;;;;;;5046378;28;20059;-62
2022/03/19 08:30:08;;;;;;;12.70;5.45;;;8.30;99.90;;;;;;5045630;28;20043;-62
2022/03/19 08:32:34;;;;;;;10.57;4.90;;;8.40;99.90;;;;;;5044584;28;20028;-63
2022/03/19 08:35:00;;;;;;;13.70;5.00;;;8.50;99.90;;;;;;5048605;28;20112;-60
2022/03/19 08:37:26;;;;;;;13.60;6.03;;;8.60;99.90;;;;;;5044436;28;20557;-63
2022/03/19 08:42:37;;;;;;;10.70;5.13;;;8.90;99.90;;;;;;5045542;28;20206;-62
2022/03/19 08:45:03;;;;;;;13.43;5.28;;;9.00;99.90;;;;;;5042953;28;20159;-62
2022/03/19 08:47:29;;;;;;;13.75;5.63;;;9.10;99.90;;;;;;5045963;28;20025;-63
2022/03/19 08:49:55;;;;;;;13.55;5.85;;;9.20;99.90;;;;;;5042436;28;20410;-62
2022/03/19 08:52:21;;;;;;;13.65;4.97;;;9.30;99.90;;;;;;5041718;28;20025;-62
2022/03/19 08:54:46;;;;;;;16.67;5.60;;;9.30;99.90;;;;;;5048812;28;20029;-61
2022/03/19 08:57:12;;;;;;;14.60;5.22;;;9.40;99.90;;;;;;5043400;28;20040;-62
2022/03/19 08:59:38;;;;;;;14.90;5.82;;;9.50;99.90;;;;;;5040692;28;20028;-60
2022/03/19 09:02:04;;;;;;;14.90;5.78;;;9.60;99.90;;;;;;5047371;28;20025;-61
2022/03/19 09:04:29;;;;;;;12.68;5.65;;;9.70;99.90;;;;;;5045215;28;20179;-59
2022/03/19 09:06:55;;;;;;;14.38;5.38;;;9.80;99.90;;;;;;5046830;28;20048;-65
2022/03/19 09:09:20;;;;;;;9.90;5.03;;;9.90;99.90;;;;;;5053261;28;20033;-62
2022/03/19 09:11:48;;;;;;;13.32;4.93;;;10.10;99.90;;;;;;5047521;28;20033;-60
2022/03/19 09:14:14;;;;;;;14.52;5.78;;;10.20;99.90;;;;;;5044095;28;20033;-61
2022/03/19 09:16:40;;;;;;;12.10;5.35;;;10.40;99.90;;;;;;5049662;28;20433;-63
2022/03/19 09:19:06;;;;;;;13.32;5.55;;;10.70;99.90;;;;;;5043196;28;20074;-63
2022/03/19 09:21:31;;;;;;;10.27;4.53;;;10.80;99.90;;;;;;5042800;28;20482;-61
2022/03/19 09:23:57;;;;;;;14.07;5.10;;;10.90;99.90;;;;;;5044807;28;20108;-61
2022/03/19 09:26:23;;;;;;;13.88;5.18;;;11.00;99.90;;;;;;5036037;28;20032;-63
2022/03/19 09:28:49;;;;;;;15.07;5.20;;;11.10;99.90;;;;;;5051705;28;20043;-62
2022/03/19 09:31:18;;;;;;;18.30;5.15;;;11.10;99.90;;;;;;5045144;28;20555;-62
2022/03/19 09:33:45;;;;;;;13.45;5.50;;;11.20;99.90;;;;;;5051024;28;20040;-60
2022/03/19 09:36:11;;;;;;;11.50;5.05;;;11.30;99.90;;;;;;5056103;28;20172;-62
2022/03/19 09:38:36;;;;;;;11.15;5.30;;;11.40;99.90;;;;;;5061365;28;20124;-60
2022/03/19 09:41:02;;;;;;;11.80;4.57;;;11.60;99.90;;;;;;5053078;28;20663;-59
2022/03/19 09:43:29;;;;;;;11.75;4.25;;;11.80;99.90;;;;;;5068596;28;20181;-62
2022/03/19 09:45:55;;;;;;;10.57;4.68;;;12.00;99.90;;;;;;5054130;28;20106;-63
2022/03/19 09:48:21;;;;;;;10.45;4.40;;;12.20;99.90;;;;;;5049899;28;20048;-62
2022/03/19 09:50:52;;;;;;;9.10;3.63;;;12.40;99.90;;;;;;5048600;28;20040;-63
2022/03/19 09:53:20;;;;;;;12.95;4.03;;;12.60;99.90;;;;;;5047692;28;20168;-61
2022/03/19 09:55:46;;;;;;;13.32;4.28;;;12.70;99.90;;;;;;5049184;28;20060;-62
2022/03/19 09:58:15;;;;;;;8.32;3.75;;;12.80;99.90;;;;;;5049493;28;20461;-61
2022/03/19 10:00:42;;;;;;;7.72;3.60;;;12.90;99.90;;;;;;5053801;28;20170;-60
2022/03/19 10:03:10;;;;;;;12.95;3.67;;;13.00;99.90;;;;;;5051174;28;20112;-60
2022/03/19 10:08:35;;;;;;;10.68;3.72;;;13.20;99.90;;;;;;5047257;28;20041;-63
2022/03/19 10:11:04;;;;;;;8.63;3.47;;;13.50;99.90;;;;;;5042891;28;20037;-63
2022/03/19 10:13:29;;;;;;;8.50;3.28;;;13.50;99.90;;;;;;5049783;28;20549;-63
2022/03/19 10:15:55;;;;;;;11.27;3.75;;;13.70;99.90;;;;;;5050463;28;20040;-62
2022/03/19 10:18:28;;;;;;;11.52;3.10;;;13.80;99.90;;;;;;5048345;28;20117;-60
2022/03/19 10:20:54;;;;;;;10.38;3.38;;;14.00;99.90;;;;;;5051056;28;20025;-60
2022/03/19 10:23:32;;;;;;;7.25;2.95;;;14.20;99.90;;;;;;5043609;28;20592;-63
2022/03/19 10:25:58;;;;;;;7.65;3.28;;;14.40;99.90;;;;;;5049366;28;20096;-59
2022/03/19 10:28:31;;;;;;;6.10;3.13;;;14.60;99.90;;;;;;5049603;28;20040;-61
2022/03/19 10:30:57;;;;;;;11.60;3.60;;;14.50;99.90;;;;;;5049377;28;20021;-60
2022/03/19 10:33:31;;;;;;;8.48;3.08;;;14.40;99.90;;;;;;5059567;28;20025;-61
2022/03/19 10:36:10;;;;;;;8.23;3.27;;;14.60;99.90;;;;;;5045244;28;20024;-62
2022/03/19 10:38:44;;;;;;;6.75;2.60;;;14.50;98.10;;;;;;5053075;28;20745;-59
2022/03/19 10:41:12;;;;;;;8.60;2.80;;;14.60;99.00;;;;;;5052912;28;20140;-57
2022/03/19 10:43:38;;;;;;;5.10;2.42;;;14.60;96.40;;;;;;5061119;28;20028;-62
2022/03/19 10:46:04;;;;;;;7.90;2.78;;;14.70;96.40;;;;;;5056283;28;20071;-61
2022/03/19 10:48:30;;;;;;;5.68;2.47;;;15.10;97.20;;;;;;5061445;28;20070;-61
2022/03/19 10:51:01;;;;;;;6.85;2.35;;;15.20;94.10;;;;;;5054663;28;20792;-61
2022/03/19 10:53:27;;;;;;;8.30;2.22;;;15.50;94.70;;;;;;5047873;28;20352;-61
2022/03/19 10:55:53;;;;;;;7.88;2.67;;;15.50;92.90;;;;;;5052797;28;20025;-59
2022/03/19 10:58:19;;;;;;;4.00;2.35;;;15.50;92.10;;;;;;5047738;28;20017;-61
2022/03/19 11:00:50;;;;;;;10.65;2.30;;;15.60;91.70;;;;;;5051364;28;20017;-62
2022/03/19 11:03:28;;;;;;;9.85;2.30;;;15.70;92.20;;;;;;5056898;28;20028;-60
2022/03/19 11:06:02;;;;;;;3.95;1.95;;;15.70;90.80;;;;;;5053130;28;20044;-61
2022/03/19 11:08:29;;;;;;;6.47;2.00;;;15.90;87.10;;;;;;5046044;28;20024;-61
2022/03/19 11:10:59;;;;;;;3.67;1.67;;;15.90;86.20;;;;;;5059430;28;20028;-61
2022/03/19 11:13:27;;;;;;;7.00;2.30;;;16.00;83.10;;;;;;5053335;28;20025;-60
2022/03/19 11:15:57;;;;;;;5.18;1.88;;;16.20;83.20;;;;;;5053140;28;20060;-63
2022/03/19 11:18:23;;;;;;;4.53;1.70;;;15.80;79.20;;;;;;5047966;28;20062;-63
2022/03/19 11:20:50;;;;;;;2.72;1.52;;;15.80;77.90;;;;;;5045879;28;20025;-61
2022/03/19 11:23:34;;;;;;;3.72;1.50;;;16.00;78.00;;;;;;5057572;28;20585;-64
2022/03/19 11:26:02;;;;;;;2.63;1.25;;;16.10;78.40;;;;;;5035777;28;20522;-63
2022/03/19 11:28:29;;;;;;;7.60;1.80;;;16.20;73.70;;;;;;5055800;28;20020;-62
2022/03/19 11:31:01;;;;;;;7.18;2.10;;;16.30;75.10;;;;;;5051211;28;20025;-60
2022/03/19 11:33:32;;;;;;;2.72;1.23;;;16.30;72.50;;;;;;5046817;28;20541;-60
2022/03/19 11:36:02;;;;;;;3.88;1.15;;;16.50;71.00;;;;;;5050197;28;20032;-61
2022/03/19 11:38:30;;;;;;;2.97;1.30;;;16.70;65.00;;;;;;5057627;28;20063;-58
2022/03/19 11:40:57;;;;;;;3.35;1.65;;;16.80;67.50;;;;;;5054716;28;20070;-59
2022/03/19 11:43:31;;;;;;;2.90;1.52;;;16.90;68.30;;;;;;5064389;28;20039;-64
2022/03/19 11:46:07;;;;;;;5.03;1.70;;;16.60;71.60;;;;;;5047695;28;20021;-62
2022/03/19 11:48:38;;;;;;;2.72;1.60;;;16.80;70.00;;;;;;5048577;28;20048;-61
2022/03/19 11:51:18;;;;;;;3.58;1.70;;;16.90;67.40;;;;;;5050646;28;20096;-60
2022/03/19 11:54:00;;;;;;;3.67;1.10;;;17.00;68.20;;;;;;5050667;28;20017;-62
2022/03/19 11:56:46;;;;;;;2.05;1.05;;;17.40;61.40;;;;;;5045126;28;20065;-61
2022/03/19 11:59:12;;;;;;;6.82;1.60;;;17.30;66.00;;;;;;5051330;28;20430;-62
2022/03/19 12:01:59;;;;;;;11.68;1.15;;;17.50;65.10;;;;;;5067695;28;20103;-63
2022/03/19 12:04:39;;;;;;;8.10;1.52;;;17.60;63.90;;;;;;5049243;28;20074;-64
2022/03/19 12:07:05;;;;;;;5.72;1.77;;;17.80;64.30;;;;;;5044672;28;20036;-63
2022/03/19 12:09:32;;;;;;;2.22;1.23;;;17.70;60.70;;;;;;5051562;28;20033;-65
2022/03/19 12:12:15;;;;;;;3.80;1.50;;;17.30;62.60;;;;;;5051907;28;20025;-62
2022/03/19 12:14:42;;;;;;;2.83;1.38;;;17.60;59.10;;;;;;5046474;28;20025;-64
2022/03/19 12:17:21;;;;;;;4.28;1.10;;;17.70;58.10;;;;;;5051603;28;20020;-64
2022/03/19 12:19:59;;;;;;;3.72;1.23;;;17.60;59.90;;;;;;5063979;28;20020;-64
2022/03/19 12:22:36;;;;;;;4.25;1.13;;;17.60;57.80;;;;;;5050739;28;20075;-62
2022/03/19 12:25:25;;;;;;;5.70;0.90;;;17.80;55.90;;;;;;5049368;28;20033;-63
2022/03/19 12:27:55;;;;;;;3.22;1.00;;;17.70;52.60;;;;;;5053291;28;20263;-62
2022/03/19 12:30:23;;;;;;;2.85;0.80;;;17.40;52.70;;;;;;5052000;28;20037;-63
2022/03/19 12:32:56;;;;;;;3.58;1.13;;;17.40;52.60;;;;;;5046309;28;20032;-63
2022/03/19 12:35:23;;;;;;;2.63;1.15;;;17.40;55.00;;;;;;5047768;28;20068;-64
2022/03/19 12:37:57;;;;;;;3.60;1.00;;;17.60;53.70;;;;;;5048120;28;20062;-60
2022/03/19 12:40:27;;;;;;;4.13;0.98;;;17.90;54.20;;;;;;5032156;28;20104;-60
2022/03/19 12:42:55;;;;;;;4.43;0.90;;;17.90;49.50;;;;;;5051632;28;20017;-63
2022/03/19 12:45:52;;;;;;;5.10;0.85;;;17.40;47.60;;;;;;5047636;28;20029;-63
2022/03/19 12:48:21;;;;;;;3.80;1.05;;;17.10;48.00;;;;;;5052744;28;20025;-62
2022/03/19 12:50:54;;;;;;;2.33;0.70;;;17.00;50.20;;;;;;5052009;28;20024;-62
2022/03/19 12:53:37;;;;;;;2.13;0.80;;;16.90;48.50;;;;;;5056933;28;20047;-64
2022/03/19 12:56:19;;;;;;;3.88;0.77;;;17.10;53.70;;;;;;5043279;28;20028;-62
2022/03/19 12:58:46;;;;;;;3.67;1.10;;;17.20;46.50;;;;;;5052427;28;20033;-63
2022/03/19 13:01:18;;;;;;;1.48;0.60;;;17.20;48.70;;;;;;5054560;28;20029;-63
2022/03/19 13:03:44;;;;;;;7.28;0.90;;;17.40;45.80;;;;;;5048758;28;20111;-62
2022/03/19 13:06:11;;;;;;;2.92;1.08;;;17.50;50.60;;;;;;5049637;28;20437;-62